createdAt,value
2023-03-04T00:00:45.649Z,16.95
2023-03-04T00:05:47.291Z,19.48
2023-03-04T00:10:48.658Z,19.25
2023-03-04T00:15:50.046Z,16.77
2023-03-04T00:20:51.450Z,21.60
2023-03-04T00:25:52.900Z,16.35
2023-03-04T00:30:54.254Z,17.77
2023-03-04T00:35:55.926Z,20.45
2023-03-04T00:40:57.352Z,21.15
2023-03-04T00:45:59.775Z,25.98
2023-03-04T00:51:01.130Z,29.33
2023-03-04T00:56:02.501Z,24.42
2023-03-04T01:01:03.984Z,23.85
2023-03-04T01:06:05.643Z,28.95
2023-03-04T01:11:07.446Z,27.08
2023-03-04T01:16:10.218Z,28.75
2023-03-04T01:21:11.631Z,28.10
2023-03-04T01:26:13.022Z,33.85
2023-03-04T01:31:14.475Z,32.20
2023-03-04T01:36:15.888Z,33.88
2023-03-04T01:41:22.406Z,31.88
2023-03-04T01:46:24.289Z,32.72
2023-03-04T01:51:25.794Z,39.35
2023-03-04T01:56:35.552Z,34.53
2023-03-04T02:01:38.758Z,36.60
2023-03-04T02:06:41.236Z,38.13
2023-03-04T02:11:44.425Z,39.88
2023-03-04T02:16:46.894Z,39.10
2023-03-04T02:21:48.330Z,37.63
2023-03-04T02:26:49.736Z,37.22
2023-03-04T02:31:53.404Z,36.92
2023-03-04T02:36:55.897Z,34.22
2023-03-04T02:41:58.145Z,39.00
2023-03-04T02:47:00.459Z,36.58
2023-03-04T02:52:03.604Z,36.60
2023-03-04T02:57:07.932Z,37.50
2023-03-04T03:02:10.250Z,34.75
2023-03-04T03:07:11.692Z,32.50
2023-03-04T03:12:13.095Z,37.90
2023-03-04T03:17:14.468Z,39.45
2023-03-04T03:22:15.877Z,35.38
2023-03-04T03:27:17.293Z,36.30
2023-03-04T03:32:18.723Z,34.25
2023-03-04T03:37:20.275Z,41.72
2023-03-04T03:42:21.632Z,30.38
2023-03-04T03:47:23.137Z,32.85
2023-03-04T03:52:24.536Z,34.35
2023-03-04T03:57:25.938Z,35.45
2023-03-04T04:02:27.587Z,30.48
2023-03-04T04:07:29.075Z,35.78
2023-03-04T04:12:30.690Z,37.10
2023-03-04T04:17:32.113Z,32.97
2023-03-04T04:22:34.038Z,35.75
2023-03-04T04:27:35.477Z,33.83
2023-03-04T04:32:37.032Z,36.92
2023-03-04T04:37:38.392Z,35.08
2023-03-04T04:42:39.739Z,33.20
2023-03-04T04:47:41.122Z,34.47
2023-03-04T04:52:42.605Z,39.78
2023-03-04T04:57:44.064Z,37.60
2023-03-04T05:02:45.550Z,39.00
2023-03-04T05:07:46.907Z,38.08
2023-03-04T05:12:49.706Z,37.17
2023-03-04T05:17:51.119Z,34.00
2023-03-04T05:22:52.523Z,34.75
2023-03-04T05:27:53.885Z,36.28
2023-03-04T05:32:55.230Z,35.72
2023-03-04T05:37:56.579Z,36.97
2023-03-04T05:42:58.082Z,33.30
2023-03-04T05:48:00.125Z,30.85
2023-03-04T05:53:01.541Z,29.52
2023-03-04T05:58:02.976Z,27.95
2023-03-04T06:03:04.443Z,30.85
2023-03-04T06:08:05.912Z,33.38
2023-03-04T06:13:08.017Z,25.67
2023-03-04T06:18:09.465Z,27.00
2023-03-04T06:23:10.892Z,26.20
2023-03-04T06:28:12.303Z,33.67
2023-03-04T06:33:13.701Z,29.27
2023-03-04T06:38:15.341Z,32.63
2023-03-04T06:43:16.870Z,27.42
2023-03-04T06:48:18.211Z,29.35
2023-03-04T06:53:19.601Z,27.95
2023-03-04T06:58:20.953Z,28.38
2023-03-04T07:03:22.574Z,27.38
2023-03-04T07:08:23.921Z,33.03
2023-03-04T07:13:25.323Z,26.13
2023-03-04T07:18:26.857Z,25.15
2023-03-04T07:23:28.331Z,27.35
2023-03-04T07:28:29.846Z,26.48
2023-03-04T07:33:31.192Z,24.65
2023-03-04T07:38:32.916Z,24.65
2023-03-04T07:43:34.411Z,25.58
2023-03-04T07:48:37.112Z,20.65
2023-03-04T07:53:39.977Z,23.52
2023-03-04T07:58:41.934Z,26.50
2023-03-04T08:03:43.617Z,23.75
2023-03-04T08:08:46.013Z,24.98
2023-03-04T08:13:48.723Z,25.13
2023-03-04T08:18:52.692Z,20.88
2023-03-04T08:23:55.053Z,21.20
2023-03-04T08:28:57.553Z,21.08
2023-03-04T08:33:59.012Z,26.75
2023-03-04T08:39:00.462Z,26.10
2023-03-04T08:44:02.003Z,21.52
2023-03-04T08:49:04.210Z,22.55
2023-03-04T08:54:05.818Z,27.67
2023-03-04T08:59:07.188Z,15.60
2023-03-04T09:04:08.865Z,17.08
2023-03-04T09:09:10.308Z,22.00
2023-03-04T09:14:11.852Z,17.98
2023-03-04T09:19:13.242Z,15.43
2023-03-04T09:24:14.724Z,18.35
2023-03-04T09:29:16.077Z,20.60
2023-03-04T09:34:17.484Z,18.20
2023-03-04T09:39:18.929Z,18.65
2023-03-04T09:44:30.680Z,15.77
2023-03-04T09:49:32.363Z,19.60
2023-03-04T09:54:45.111Z,18.65
2023-03-04T10:00:07.830Z,16.75
2023-03-04T10:05:16.498Z,14.95
2023-03-04T10:10:40.179Z,17.85
2023-03-04T10:15:46.450Z,15.70
2023-03-04T10:21:06.664Z,12.95
2023-03-04T10:26:13.752Z,13.57
2023-03-04T10:31:29.030Z,15.55
2023-03-04T10:36:30.423Z,15.15
2023-03-04T10:41:32.330Z,14.35
2023-03-04T10:46:38.339Z,12.32
2023-03-04T10:52:03.582Z,13.20
2023-03-04T10:57:13.702Z,14.52
2023-03-04T11:02:15.056Z,13.80
2023-03-04T11:07:16.476Z,19.50
2023-03-04T11:12:22.132Z,8.80
2023-03-04T11:17:48.523Z,8.32
2023-03-04T11:22:51.802Z,11.50
2023-03-04T11:28:00.732Z,6.50
2023-03-04T11:33:26.986Z,10.35
2023-03-04T11:38:39.307Z,12.93
2023-03-04T11:43:46.603Z,11.68
2023-03-04T11:49:07.057Z,17.65
2023-03-04T11:54:32.361Z,10.60
2023-03-04T11:59:58.614Z,8.07
2023-03-04T12:05:17.431Z,10.80
2023-03-04T12:10:52.694Z,9.60
2023-03-04T12:16:00.331Z,6.53
2023-03-04T12:26:08.566Z,4.97
2023-03-04T12:31:33.203Z,11.77
2023-03-04T12:36:37.282Z,10.68
2023-03-04T12:42:29.441Z,6.20
2023-03-04T12:47:51.158Z,6.35
2023-03-04T12:53:14.488Z,1.75
2023-03-04T12:58:19.900Z,6.38
2023-03-04T13:03:24.473Z,3.55
2023-03-04T13:08:33.343Z,2.58
2023-03-04T13:13:37.351Z,3.63
2023-03-04T13:18:39.489Z,7.05
2023-03-04T13:23:42.127Z,3.25
2023-03-04T13:28:43.831Z,3.47
2023-03-04T13:33:49.494Z,5.55
2023-03-04T13:39:21.881Z,4.53
2023-03-04T13:44:44.907Z,5.18
2023-03-04T13:55:33.342Z,1.90
2023-03-04T14:06:18.159Z,3.65
2023-03-04T14:11:38.466Z,3.25
2023-03-04T14:16:56.084Z,4.68
2023-03-04T14:21:59.448Z,2.67
2023-03-04T14:27:11.060Z,4.93
2023-03-04T14:32:12.849Z,4.43
2023-03-04T14:37:27.050Z,4.43
2023-03-04T14:42:39.215Z,5.15
2023-03-04T14:47:45.181Z,8.98
2023-03-04T14:52:51.573Z,5.03
2023-03-04T14:58:05.732Z,4.53
2023-03-04T15:03:21.743Z,5.25
2023-03-04T15:08:32.732Z,11.82
2023-03-04T15:13:50.405Z,4.00
2023-03-04T15:19:26.293Z,2.50
2023-03-04T15:24:27.648Z,2.95
2023-03-04T15:29:29.104Z,2.60
2023-03-04T15:34:31.380Z,3.28
2023-03-04T15:39:32.843Z,1.63
2023-03-04T15:44:34.234Z,4.43
2023-03-04T15:49:35.611Z,4.88
2023-03-04T15:54:36.991Z,5.75
2023-03-04T15:59:38.418Z,4.53
2023-03-04T16:04:39.798Z,2.25
2023-03-04T16:09:41.210Z,3.03
2023-03-04T16:14:44.270Z,4.88
2023-03-04T16:19:46.701Z,6.63
2023-03-04T16:24:48.105Z,5.15
2023-03-04T16:29:49.493Z,4.88
2023-03-04T16:34:50.865Z,2.47
2023-03-04T16:39:52.444Z,5.70
2023-03-04T16:44:55.206Z,5.05
2023-03-04T16:49:57.591Z,5.47
2023-03-04T16:55:00.154Z,4.47
2023-03-04T17:00:01.666Z,3.72
2023-03-04T17:05:04.202Z,7.25
2023-03-04T17:10:06.037Z,6.32
2023-03-04T17:15:09.927Z,7.43
2023-03-04T17:20:14.347Z,9.35
2023-03-04T17:25:16.021Z,6.55
2023-03-04T17:30:17.641Z,7.80
2023-03-04T17:35:19.328Z,10.20
2023-03-04T17:40:20.874Z,10.88
2023-03-04T17:45:22.294Z,11.82
2023-03-04T17:50:23.692Z,8.57
2023-03-04T17:55:26.339Z,9.30
2023-03-04T18:00:27.817Z,16.23
2023-03-04T18:05:29.234Z,8.48
2023-03-04T18:10:30.611Z,10.00
2023-03-04T18:15:32.147Z,11.02
2023-03-04T18:20:33.646Z,11.57
2023-03-04T18:25:35.095Z,10.65
2023-03-04T18:30:38.205Z,11.85
2023-03-04T18:35:39.651Z,9.65
2023-03-04T18:40:42.169Z,12.48
2023-03-04T18:45:43.701Z,13.27
2023-03-04T18:50:45.355Z,15.45
2023-03-04T18:55:46.829Z,11.65
2023-03-04T19:00:48.344Z,14.23
2023-03-04T19:05:49.976Z,11.63
2023-03-04T19:10:51.441Z,15.40
2023-03-04T19:15:54.441Z,11.73
2023-03-04T19:20:59.562Z,10.65
2023-03-04T19:26:01.080Z,10.27
2023-03-04T19:31:07.381Z,13.52
2023-03-04T19:36:09.566Z,13.95
2023-03-04T19:41:13.981Z,13.55
2023-03-04T19:46:15.981Z,13.60
2023-03-04T19:51:19.831Z,14.30
2023-03-04T19:56:23.925Z,11.63
2023-03-04T20:01:30.892Z,15.38
2023-03-04T20:06:35.954Z,12.33
2023-03-04T20:11:44.222Z,8.05
2023-03-04T20:16:48.722Z,11.85
2023-03-04T20:21:50.141Z,10.65
2023-03-04T20:26:52.129Z,9.73
2023-03-04T20:31:53.533Z,9.60
2023-03-04T20:36:54.940Z,9.55
2023-03-04T20:41:59.429Z,9.18
2023-03-04T20:47:01.620Z,11.73
2023-03-04T20:52:06.287Z,11.15
2023-03-04T20:57:08.605Z,10.75
2023-03-04T21:02:14.900Z,12.23
2023-03-04T21:07:16.516Z,12.90
2023-03-04T21:12:17.977Z,11.80
2023-03-04T21:17:19.371Z,11.82
2023-03-04T21:22:21.022Z,11.30
2023-03-04T21:27:22.521Z,11.75
2023-03-04T21:32:26.450Z,12.98
2023-03-04T21:37:27.936Z,14.70
2023-03-04T21:42:29.434Z,12.82
2023-03-04T21:47:30.809Z,9.90
2023-03-04T21:52:32.179Z,10.52
2023-03-04T21:57:33.561Z,15.73
2023-03-04T22:02:34.972Z,11.20
2023-03-04T22:07:36.407Z,10.43
2023-03-04T22:12:37.770Z,12.38
2023-03-04T22:17:39.227Z,9.32
2023-03-04T22:22:40.648Z,11.13
2023-03-04T22:27:42.023Z,11.85
2023-03-04T22:32:48.260Z,11.52
2023-03-04T22:37:49.669Z,9.52
2023-03-04T22:42:51.117Z,9.95
2023-03-04T22:47:52.849Z,16.33
2023-03-04T22:52:54.369Z,13.30
2023-03-04T22:57:55.735Z,12.60
2023-03-04T23:02:57.807Z,14.27
2023-03-04T23:07:59.641Z,12.00
2023-03-04T23:13:01.024Z,11.43
2023-03-04T23:18:02.444Z,16.02
2023-03-04T23:23:03.832Z,16.38
2023-03-04T23:28:05.362Z,12.10
2023-03-04T23:33:06.754Z,11.50
2023-03-04T23:38:08.122Z,10.57
2023-03-04T23:43:09.544Z,12.00
2023-03-04T23:48:10.906Z,13.38
2023-03-04T23:53:12.301Z,10.63
2023-03-04T23:58:13.693Z,8.98
